sensor_id;sensor_type;location;lat;lon;timestamp;temperature;humidity
26503;DHT22;14177;51.520;6.764;2022-09-27T00:01:15;10.90;99.90
26503;DHT22;14177;51.520;6.764;2022-09-27T00:03:43;10.90;99.90
26503;DHT22;14177;51.520;6.764;2022-09-27T00:06:23;10.90;99.90
26503;DHT22;14177;51.520;6.764;2022-09-27T00:08:52;10.90;99.90
26503;DHT22;14177;51.520;6.764;2022-09-27T00:11:27;10.90;99.90
26503;DHT22;14177;51.520;6.764;2022-09-27T00:13:57;10.90;99.90
26503;DHT22;14177;51.520;6.764;2022-09-27T00:16:28;10.90;99.90
26503;DHT22;14177;51.520;6.764;2022-09-27T00:19:01;10.80;99.90
26503;DHT22;14177;51.520;6.764;2022-09-27T00:21:30;10.80;99.90
26503;DHT22;14177;51.520;6.764;2022-09-27T00:23:58;10.80;99.90
26503;DHT22;14177;51.520;6.764;2022-09-27T00:26:26;10.80;99.90
26503;DHT22;14177;51.520;6.764;2022-09-27T00:28:53;10.80;99.90
26503;DHT22;14177;51.520;6.764;2022-09-27T00:31:23;10.80;99.90
26503;DHT22;14177;51.520;6.764;2022-09-27T00:33:57;10.80;99.90
26503;DHT22;14177;51.520;6.764;2022-09-27T00:36:26;10.80;99.90
26503;DHT22;14177;51.520;6.764;2022-09-27T00:38:55;10.80;99.90
26503;DHT22;14177;51.520;6.764;2022-09-27T00:41:27;10.80;99.90
26503;DHT22;14177;51.520;6.764;2022-09-27T00:44:03;10.80;99.90
26503;DHT22;14177;51.520;6.764;2022-09-27T00:50:07;10.90;99.90
26503;DHT22;14177;51.520;6.764;2022-09-27T00:55:48;10.80;99.90
26503;DHT22;14177;51.520;6.764;2022-09-27T00:58:28;10.80;99.90
26503;DHT22;14177;51.520;6.764;2022-09-27T01:01:04;10.80;99.90
26503;DHT22;14177;51.520;6.764;2022-09-27T01:06:29;10.80;99.90
26503;DHT22;14177;51.520;6.764;2022-09-27T01:08:56;10.80;99.90
26503;DHT22;14177;51.520;6.764;2022-09-27T01:17:38;10.80;99.90
26503;DHT22;14177;51.520;6.764;2022-09-27T01:29:56;10.80;99.90
26503;DHT22;14177;51.520;6.764;2022-09-27T01:35:34;10.70;99.90
26503;DHT22;14177;51.520;6.764;2022-09-27T01:38:50;10.70;99.90
26503;DHT22;14177;51.520;6.764;2022-09-27T01:41:34;10.70;99.90
26503;DHT22;14177;51.520;6.764;2022-09-27T01:46:54;10.60;99.90
26503;DHT22;14177;51.520;6.764;2022-09-27T01:53:08;10.60;99.90
26503;DHT22;14177;51.520;6.764;2022-09-27T01:56:01;10.60;99.90
26503;DHT22;14177;51.520;6.764;2022-09-27T01:59:10;10.60;99.90
26503;DHT22;14177;51.520;6.764;2022-09-27T02:01:49;10.60;99.90
26503;DHT22;14177;51.520;6.764;2022-09-27T02:04:23;10.60;99.90
26503;DHT22;14177;51.520;6.764;2022-09-27T02:07:21;10.60;99.90
26503;DHT22;14177;51.520;6.764;2022-09-27T02:09:59;10.60;99.90
26503;DHT22;14177;51.520;6.764;2022-09-27T02:22:03;10.60;99.90
26503;DHT22;14177;51.520;6.764;2022-09-27T02:24:35;10.60;99.90
26503;DHT22;14177;51.520;6.764;2022-09-27T02:27:21;10.60;99.90
26503;DHT22;14177;51.520;6.764;2022-09-27T02:30:02;10.60;99.90
26503;DHT22;14177;51.520;6.764;2022-09-27T02:32:39;10.60;99.90
26503;DHT22;14177;51.520;6.764;2022-09-27T02:37:50;10.60;99.90
26503;DHT22;14177;51.520;6.764;2022-09-27T02:40:17;10.60;99.90
26503;DHT22;14177;51.520;6.764;2022-09-27T02:42:45;10.50;99.90
26503;DHT22;14177;51.520;6.764;2022-09-27T02:45:15;10.50;99.90
26503;DHT22;14177;51.520;6.764;2022-09-27T02:47:48;10.60;99.90
26503;DHT22;14177;51.520;6.764;2022-09-27T02:50:35;10.60;99.90
26503;DHT22;14177;51.520;6.764;2022-09-27T02:56:42;10.50;99.90
26503;DHT22;14177;51.520;6.764;2022-09-27T03:00:09;10.50;99.90
26503;DHT22;14177;51.520;6.764;2022-09-27T03:06:04;10.40;99.90
26503;DHT22;14177;51.520;6.764;2022-09-27T03:08:36;10.40;99.90
26503;DHT22;14177;51.520;6.764;2022-09-27T03:11:04;10.40;99.90
26503;DHT22;14177;51.520;6.764;2022-09-27T03:13:31;10.30;99.90
26503;DHT22;14177;51.520;6.764;2022-09-27T03:16:20;10.30;99.90
26503;DHT22;14177;51.520;6.764;2022-09-27T03:18:56;10.20;99.90
26503;DHT22;14177;51.520;6.764;2022-09-27T03:21:46;10.20;99.90
26503;DHT22;14177;51.520;6.764;2022-09-27T03:24:12;10.20;99.90
26503;DHT22;14177;51.520;6.764;2022-09-27T03:26:40;10.20;99.90
26503;DHT22;14177;51.520;6.764;2022-09-27T03:29:07;10.20;99.90
26503;DHT22;14177;51.520;6.764;2022-09-27T03:31:34;10.20;99.90
26503;DHT22;14177;51.520;6.764;2022-09-27T03:34:19;10.20;99.90
26503;DHT22;14177;51.520;6.764;2022-09-27T03:36:47;10.20;99.90
26503;DHT22;14177;51.520;6.764;2022-09-27T03:39:14;10.20;99.90
26503;DHT22;14177;51.520;6.764;2022-09-27T03:41:41;10.10;99.90
26503;DHT22;14177;51.520;6.764;2022-09-27T03:44:08;10.10;99.90
26503;DHT22;14177;51.520;6.764;2022-09-27T03:46:35;10.10;99.90
26503;DHT22;14177;51.520;6.764;2022-09-27T03:49:02;10.00;99.90
26503;DHT22;14177;51.520;6.764;2022-09-27T03:51:29;10.00;99.90
26503;DHT22;14177;51.520;6.764;2022-09-27T03:53:56;10.00;99.90
26503;DHT22;14177;51.520;6.764;2022-09-27T03:56:23;10.00;99.90
26503;DHT22;14177;51.520;6.764;2022-09-27T03:58:51;9.90;99.90
26503;DHT22;14177;51.520;6.764;2022-09-27T04:01:18;9.90;99.90
26503;DHT22;14177;51.520;6.764;2022-09-27T04:03:50;9.90;99.90
26503;DHT22;14177;51.520;6.764;2022-09-27T04:06:26;9.90;99.90
26503;DHT22;14177;51.520;6.764;2022-09-27T04:08:53;9.80;99.90
26503;DHT22;14177;51.520;6.764;2022-09-27T04:11:22;9.80;99.90
26503;DHT22;14177;51.520;6.764;2022-09-27T04:13:49;9.70;99.90
26503;DHT22;14177;51.520;6.764;2022-09-27T04:16:19;9.70;99.90
26503;DHT22;14177;51.520;6.764;2022-09-27T04:19:09;9.70;99.90
26503;DHT22;14177;51.520;6.764;2022-09-27T04:21:36;9.70;99.90
26503;DHT22;14177;51.520;6.764;2022-09-27T04:24:05;9.60;99.90
26503;DHT22;14177;51.520;6.764;2022-09-27T04:26:33;9.60;99.90
26503;DHT22;14177;51.520;6.764;2022-09-27T04:29:02;9.60;99.90
26503;DHT22;14177;51.520;6.764;2022-09-27T04:31:31;9.60;99.90
26503;DHT22;14177;51.520;6.764;2022-09-27T04:34:21;9.60;99.90
26503;DHT22;14177;51.520;6.764;2022-09-27T04:37:12;9.50;99.90
26503;DHT22;14177;51.520;6.764;2022-09-27T04:39:43;9.60;99.90
26503;DHT22;14177;51.520;6.764;2022-09-27T04:42:10;9.50;99.90
26503;DHT22;14177;51.520;6.764;2022-09-27T04:44:37;9.60;99.90
26503;DHT22;14177;51.520;6.764;2022-09-27T04:47:05;9.50;99.90
26503;DHT22;14177;51.520;6.764;2022-09-27T04:49:37;9.50;99.90
26503;DHT22;14177;51.520;6.764;2022-09-27T04:52:04;9.50;99.90
26503;DHT22;14177;51.520;6.764;2022-09-27T04:54:31;9.50;99.90
26503;DHT22;14177;51.520;6.764;2022-09-27T04:57:09;9.50;99.90
26503;DHT22;14177;51.520;6.764;2022-09-27T04:59:38;9.50;99.90
26503;DHT22;14177;51.520;6.764;2022-09-27T05:02:06;9.50;99.90
26503;DHT22;14177;51.520;6.764;2022-09-27T05:04:54;9.50;99.90
26503;DHT22;14177;51.520;6.764;2022-09-27T05:07:29;9.50;99.90
26503;DHT22;14177;51.520;6.764;2022-09-27T05:10:02;9.50;99.90
26503;DHT22;14177;51.520;6.764;2022-09-27T05:12:30;9.50;99.90
26503;DHT22;14177;51.520;6.764;2022-09-27T05:15:00;9.50;99.90
26503;DHT22;14177;51.520;6.764;2022-09-27T05:17:30;9.50;99.90
26503;DHT22;14177;51.520;6.764;2022-09-27T05:20:17;9.50;99.90
26503;DHT22;14177;51.520;6.764;2022-09-27T05:22:53;9.50;99.90
26503;DHT22;14177;51.520;6.764;2022-09-27T05:25:20;9.50;99.90
26503;DHT22;14177;51.520;6.764;2022-09-27T05:27:48;9.50;99.90
26503;DHT22;14177;51.520;6.764;2022-09-27T05:30:17;9.40;99.90
26503;DHT22;14177;51.520;6.764;2022-09-27T05:32:51;9.40;99.90
26503;DHT22;14177;51.520;6.764;2022-09-27T05:35:24;9.40;99.90
26503;DHT22;14177;51.520;6.764;2022-09-27T05:37:53;9.40;99.90
26503;DHT22;14177;51.520;6.764;2022-09-27T05:40:21;9.40;99.90
26503;DHT22;14177;51.520;6.764;2022-09-27T05:43:06;9.40;99.90
26503;DHT22;14177;51.520;6.764;2022-09-27T05:45:33;9.40;99.90
26503;DHT22;14177;51.520;6.764;2022-09-27T05:48:02;9.40;99.90
26503;DHT22;14177;51.520;6.764;2022-09-27T05:50:35;9.40;99.90
26503;DHT22;14177;51.520;6.764;2022-09-27T05:53:02;9.40;99.90
26503;DHT22;14177;51.520;6.764;2022-09-27T05:55:29;9.40;99.90
26503;DHT22;14177;51.520;6.764;2022-09-27T05:58:02;9.50;99.90
26503;DHT22;14177;51.520;6.764;2022-09-27T06:00:44;9.50;99.90
26503;DHT22;14177;51.520;6.764;2022-09-27T06:03:30;9.50;99.90
26503;DHT22;14177;51.520;6.764;2022-09-27T06:06:36;9.50;99.90
26503;DHT22;14177;51.520;6.764;2022-09-27T06:09:04;9.50;99.90
26503;DHT22;14177;51.520;6.764;2022-09-27T06:11:31;9.50;99.90
26503;DHT22;14177;51.520;6.764;2022-09-27T06:13:58;9.60;99.90
26503;DHT22;14177;51.520;6.764;2022-09-27T06:16:26;9.60;99.90
26503;DHT22;14177;51.520;6.764;2022-09-27T06:18:53;9.60;99.90
26503;DHT22;14177;51.520;6.764;2022-09-27T06:21:20;9.60;99.90
26503;DHT22;14177;51.520;6.764;2022-09-27T06:23:53;9.70;99.90
26503;DHT22;14177;51.520;6.764;2022-09-27T06:26:28;9.60;99.90
26503;DHT22;14177;51.520;6.764;2022-09-27T06:29:17;9.70;99.90
26503;DHT22;14177;51.520;6.764;2022-09-27T06:31:55;9.60;99.80
26503;DHT22;14177;51.520;6.764;2022-09-27T06:34:30;9.60;99.60
26503;DHT22;14177;51.520;6.764;2022-09-27T06:36:58;9.70;99.70
26503;DHT22;14177;51.520;6.764;2022-09-27T06:39:26;9.70;99.70
26503;DHT22;14177;51.520;6.764;2022-09-27T06:42:03;9.70;99.60
26503;DHT22;14177;51.520;6.764;2022-09-27T06:44:49;9.70;99.50
26503;DHT22;14177;51.520;6.764;2022-09-27T06:47:35;9.70;99.40
26503;DHT22;14177;51.520;6.764;2022-09-27T06:50:23;9.80;99.40
26503;DHT22;14177;51.520;6.764;2022-09-27T06:52:50;9.80;99.30
26503;DHT22;14177;51.520;6.764;2022-09-27T06:55:18;9.80;99.20
26503;DHT22;14177;51.520;6.764;2022-09-27T06:57:45;9.80;99.20
26503;DHT22;14177;51.520;6.764;2022-09-27T07:00:30;9.80;99.10
26503;DHT22;14177;51.520;6.764;2022-09-27T07:03:22;9.80;99.00
26503;DHT22;14177;51.520;6.764;2022-09-27T07:06:20;9.90;99.10
26503;DHT22;14177;51.520;6.764;2022-09-27T07:09:00;9.90;99.00
26503;DHT22;14177;51.520;6.764;2022-09-27T07:11:27;10.00;99.00
26503;DHT22;14177;51.520;6.764;2022-09-27T07:13:55;10.00;99.00
26503;DHT22;14177;51.520;6.764;2022-09-27T07:16:22;10.10;98.80
26503;DHT22;14177;51.520;6.764;2022-09-27T07:18:49;10.10;98.60
26503;DHT22;14177;51.520;6.764;2022-09-27T07:21:16;10.10;98.70
26503;DHT22;14177;51.520;6.764;2022-09-27T07:23:43;10.10;98.40
26503;DHT22;14177;51.520;6.764;2022-09-27T07:26:12;10.20;98.40
26503;DHT22;14177;51.520;6.764;2022-09-27T07:28:39;10.20;98.50
26503;DHT22;14177;51.520;6.764;2022-09-27T07:31:08;10.30;98.40
26503;DHT22;14177;51.520;6.764;2022-09-27T07:33:35;10.40;98.70
26503;DHT22;14177;51.520;6.764;2022-09-27T07:36:10;10.50;98.20
26503;DHT22;14177;51.520;6.764;2022-09-27T07:38:41;10.50;98.00
26503;DHT22;14177;51.520;6.764;2022-09-27T07:41:10;10.60;97.70
26503;DHT22;14177;51.520;6.764;2022-09-27T07:43:43;10.60;97.40
26503;DHT22;14177;51.520;6.764;2022-09-27T07:46:13;10.60;97.20
26503;DHT22;14177;51.520;6.764;2022-09-27T07:49:05;10.60;97.20
26503;DHT22;14177;51.520;6.764;2022-09-27T07:51:51;10.60;97.30
26503;DHT22;14177;51.520;6.764;2022-09-27T07:54:38;10.60;97.30
26503;DHT22;14177;51.520;6.764;2022-09-27T07:57:12;10.60;97.20
26503;DHT22;14177;51.520;6.764;2022-09-27T07:59:47;10.50;97.30
26503;DHT22;14177;51.520;6.764;2022-09-27T08:02:17;10.50;97.30
26503;DHT22;14177;51.520;6.764;2022-09-27T08:04:45;10.40;97.50
26503;DHT22;14177;51.520;6.764;2022-09-27T08:07:15;10.40;97.50
26503;DHT22;14177;51.520;6.764;2022-09-27T08:09:45;10.60;97.90
26503;DHT22;14177;51.520;6.764;2022-09-27T08:12:12;10.70;97.80
26503;DHT22;14177;51.520;6.764;2022-09-27T08:14:39;10.90;97.40
26503;DHT22;14177;51.520;6.764;2022-09-27T08:17:13;10.90;97.00
26503;DHT22;14177;51.520;6.764;2022-09-27T08:19:58;11.00;96.80
26503;DHT22;14177;51.520;6.764;2022-09-27T08:22:45;11.10;96.90
26503;DHT22;14177;51.520;6.764;2022-09-27T08:25:29;11.10;96.10
26503;DHT22;14177;51.520;6.764;2022-09-27T08:28:08;11.10;96.10
26503;DHT22;14177;51.520;6.764;2022-09-27T08:30:45;11.10;95.70
26503;DHT22;14177;51.520;6.764;2022-09-27T08:33:12;11.20;96.00
26503;DHT22;14177;51.520;6.764;2022-09-27T08:35:39;11.20;96.00
26503;DHT22;14177;51.520;6.764;2022-09-27T08:38:08;11.20;95.90
26503;DHT22;14177;51.520;6.764;2022-09-27T08:40:55;11.20;96.00
26503;DHT22;14177;51.520;6.764;2022-09-27T08:46:04;11.10;95.60
26503;DHT22;14177;51.520;6.764;2022-09-27T08:48:35;11.10;95.60
26503;DHT22;14177;51.520;6.764;2022-09-27T08:51:06;11.00;95.60
26503;DHT22;14177;51.520;6.764;2022-09-27T08:53:40;11.00;95.90
26503;DHT22;14177;51.520;6.764;2022-09-27T08:56:12;11.00;96.20
26503;DHT22;14177;51.520;6.764;2022-09-27T08:58:52;11.00;96.50
26503;DHT22;14177;51.520;6.764;2022-09-27T09:01:31;11.00;96.30
26503;DHT22;14177;51.520;6.764;2022-09-27T09:04:04;10.90;96.50
26503;DHT22;14177;51.520;6.764;2022-09-27T09:06:46;10.90;96.80
26503;DHT22;14177;51.520;6.764;2022-09-27T09:25:30;10.90;97.20
26503;DHT22;14177;51.520;6.764;2022-09-27T09:34:26;10.90;97.30
26503;DHT22;14177;51.520;6.764;2022-09-27T09:36:59;10.90;97.60
26503;DHT22;14177;51.520;6.764;2022-09-27T09:39:47;10.90;97.50
26503;DHT22;14177;51.520;6.764;2022-09-27T09:42:31;10.90;97.70
26503;DHT22;14177;51.520;6.764;2022-09-27T09:45:19;11.00;97.80
26503;DHT22;14177;51.520;6.764;2022-09-27T09:50:45;11.10;97.60
26503;DHT22;14177;51.520;6.764;2022-09-27T09:53:35;11.10;97.70
26503;DHT22;14177;51.520;6.764;2022-09-27T09:56:16;11.10;97.60
26503;DHT22;14177;51.520;6.764;2022-09-27T09:58:56;11.20;97.90
26503;DHT22;14177;51.520;6.764;2022-09-27T10:01:40;11.30;97.90
26503;DHT22;14177;51.520;6.764;2022-09-27T10:04:18;11.30;97.60
26503;DHT22;14177;51.520;6.764;2022-09-27T10:06:50;11.30;97.50
26503;DHT22;14177;51.520;6.764;2022-09-27T10:09:23;11.20;97.70
26503;DHT22;14177;51.520;6.764;2022-09-27T10:12:20;11.20;97.60
26503;DHT22;14177;51.520;6.764;2022-09-27T10:14:49;11.30;97.80
26503;DHT22;14177;51.520;6.764;2022-09-27T10:17:23;11.30;97.70
26503;DHT22;14177;51.520;6.764;2022-09-27T10:19:56;11.40;97.70
26503;DHT22;14177;51.520;6.764;2022-09-27T10:22:47;11.50;97.90
26503;DHT22;14177;51.520;6.764;2022-09-27T10:25:58;11.60;97.20
26503;DHT22;14177;51.520;6.764;2022-09-27T10:28:43;11.60;97.50
26503;DHT22;14177;51.520;6.764;2022-09-27T10:31:18;11.70;97.20
26503;DHT22;14177;51.520;6.764;2022-09-27T10:39:50;12.20;97.20
26503;DHT22;14177;51.520;6.764;2022-09-27T10:42:19;12.50;96.60
26503;DHT22;14177;51.520;6.764;2022-09-27T10:44:48;12.60;95.20
26503;DHT22;14177;51.520;6.764;2022-09-27T10:47:29;12.70;95.20
26503;DHT22;14177;51.520;6.764;2022-09-27T10:50:05;12.70;94.60
26503;DHT22;14177;51.520;6.764;2022-09-27T10:53:15;12.70;94.50
26503;DHT22;14177;51.520;6.764;2022-09-27T10:55:55;12.40;93.70
26503;DHT22;14177;51.520;6.764;2022-09-27T10:58:35;12.30;94.10
26503;DHT22;14177;51.520;6.764;2022-09-27T11:01:09;12.30;94.40
26503;DHT22;14177;51.520;6.764;2022-09-27T11:03:59;12.30;94.10
26503;DHT22;14177;51.520;6.764;2022-09-27T11:06:29;12.20;94.10
26503;DHT22;14177;51.520;6.764;2022-09-27T11:09:18;12.30;94.10
26503;DHT22;14177;51.520;6.764;2022-09-27T11:12:07;12.30;94.10
26503;DHT22;14177;51.520;6.764;2022-09-27T11:14:37;12.30;94.40
26503;DHT22;14177;51.520;6.764;2022-09-27T11:17:16;12.40;94.30
26503;DHT22;14177;51.520;6.764;2022-09-27T11:20:13;12.30;93.50
26503;DHT22;14177;51.520;6.764;2022-09-27T11:23:03;12.20;93.70
26503;DHT22;14177;51.520;6.764;2022-09-27T11:40:51;12.50;94.30
26503;DHT22;14177;51.520;6.764;2022-09-27T11:46:34;12.30;94.00
26503;DHT22;14177;51.520;6.764;2022-09-27T12:02:56;12.20;94.90
26503;DHT22;14177;51.520;6.764;2022-09-27T12:10:24;12.00;94.80
26503;DHT22;14177;51.520;6.764;2022-09-27T12:12:54;12.00;94.70
26503;DHT22;14177;51.520;6.764;2022-09-27T12:15:25;11.90;94.90
26503;DHT22;14177;51.520;6.764;2022-09-27T12:20:40;12.00;95.70
26503;DHT22;14177;51.520;6.764;2022-09-27T12:23:45;12.00;95.20
26503;DHT22;14177;51.520;6.764;2022-09-27T12:26:32;12.00;95.40
26503;DHT22;14177;51.520;6.764;2022-09-27T12:29:31;12.00;95.20
26503;DHT22;14177;51.520;6.764;2022-09-27T12:32:21;12.00;95.70
26503;DHT22;14177;51.520;6.764;2022-09-27T12:35:06;12.00;96.00
26503;DHT22;14177;51.520;6.764;2022-09-27T12:40:50;12.20;96.10
26503;DHT22;14177;51.520;6.764;2022-09-27T12:43:30;12.20;95.40
26503;DHT22;14177;51.520;6.764;2022-09-27T12:46:26;12.20;95.70
26503;DHT22;14177;51.520;6.764;2022-09-27T12:52:05;12.40;95.20
26503;DHT22;14177;51.520;6.764;2022-09-27T12:55:02;12.60;94.20
26503;DHT22;14177;51.520;6.764;2022-09-27T12:57:42;12.80;93.50
26503;DHT22;14177;51.520;6.764;2022-09-27T13:00:26;12.90;93.20
26503;DHT22;14177;51.520;6.764;2022-09-27T13:06:06;12.80;92.20
26503;DHT22;14177;51.520;6.764;2022-09-27T13:12:00;13.00;92.50
26503;DHT22;14177;51.520;6.764;2022-09-27T13:14:37;12.80;92.40
26503;DHT22;14177;51.520;6.764;2022-09-27T13:18:01;12.50;91.80
26503;DHT22;14177;51.520;6.764;2022-09-27T13:20:43;12.40;92.80
26503;DHT22;14177;51.520;6.764;2022-09-27T13:26:02;12.70;92.80
26503;DHT22;14177;51.520;6.764;2022-09-27T13:34:47;13.00;91.80
26503;DHT22;14177;51.520;6.764;2022-09-27T13:37:44;13.00;92.10
26503;DHT22;14177;51.520;6.764;2022-09-27T13:40:40;13.30;91.90
26503;DHT22;14177;51.520;6.764;2022-09-27T13:47:03;13.80;91.70
26503;DHT22;14177;51.520;6.764;2022-09-27T13:49:43;14.00;90.30
26503;DHT22;14177;51.520;6.764;2022-09-27T13:52:34;14.00;89.80
26503;DHT22;14177;51.520;6.764;2022-09-27T13:58:43;14.10;88.40
26503;DHT22;14177;51.520;6.764;2022-09-27T14:01:39;14.20;88.10
26503;DHT22;14177;51.520;6.764;2022-09-27T14:04:20;14.30;87.20
26503;DHT22;14177;51.520;6.764;2022-09-27T14:06:56;14.20;86.90
26503;DHT22;14177;51.520;6.764;2022-09-27T14:09:48;14.10;85.90
26503;DHT22;14177;51.520;6.764;2022-09-27T14:12:27;13.80;85.60
26503;DHT22;14177;51.520;6.764;2022-09-27T14:15:02;13.70;87.00
26503;DHT22;14177;51.520;6.764;2022-09-27T14:17:33;13.50;87.20
26503;DHT22;14177;51.520;6.764;2022-09-27T14:20:01;13.40;87.30
26503;DHT22;14177;51.520;6.764;2022-09-27T14:22:29;13.40;87.60
26503;DHT22;14177;51.520;6.764;2022-09-27T14:25:00;13.40;87.80
26503;DHT22;14177;51.520;6.764;2022-09-27T14:27:36;13.20;88.20
26503;DHT22;14177;51.520;6.764;2022-09-27T14:30:24;13.20;88.80
26503;DHT22;14177;51.520;6.764;2022-09-27T14:33:32;13.20;88.40
26503;DHT22;14177;51.520;6.764;2022-09-27T14:36:26;13.30;88.50
26503;DHT22;14177;51.520;6.764;2022-09-27T14:39:34;13.30;88.20
26503;DHT22;14177;51.520;6.764;2022-09-27T14:42:24;13.30;87.80
26503;DHT22;14177;51.520;6.764;2022-09-27T14:44:59;13.30;87.80
26503;DHT22;14177;51.520;6.764;2022-09-27T14:47:29;13.20;88.10
26503;DHT22;14177;51.520;6.764;2022-09-27T14:49:57;13.20;88.70
26503;DHT22;14177;51.520;6.764;2022-09-27T14:52:40;13.30;89.50
26503;DHT22;14177;51.520;6.764;2022-09-27T14:55:12;13.20;89.00
26503;DHT22;14177;51.520;6.764;2022-09-27T14:57:46;13.30;90.00
26503;DHT22;14177;51.520;6.764;2022-09-27T15:02:50;13.40;89.00
26503;DHT22;14177;51.520;6.764;2022-09-27T15:05:32;13.40;88.20
26503;DHT22;14177;51.520;6.764;2022-09-27T15:08:04;13.40;87.60
26503;DHT22;14177;51.520;6.764;2022-09-27T15:10:34;13.40;87.00
26503;DHT22;14177;51.520;6.764;2022-09-27T15:13:03;13.40;86.50
26503;DHT22;14177;51.520;6.764;2022-09-27T15:15:36;13.40;86.50
26503;DHT22;14177;51.520;6.764;2022-09-27T15:18:29;13.50;87.10
26503;DHT22;14177;51.520;6.764;2022-09-27T15:21:00;13.50;85.70
26503;DHT22;14177;51.520;6.764;2022-09-27T15:23:39;13.50;86.30
26503;DHT22;14177;51.520;6.764;2022-09-27T15:28:50;13.30;87.70
26503;DHT22;14177;51.520;6.764;2022-09-27T15:31:29;13.20;87.40
26503;DHT22;14177;51.520;6.764;2022-09-27T15:33:58;13.10;88.10
26503;DHT22;14177;51.520;6.764;2022-09-27T15:39:22;13.00;89.10
26503;DHT22;14177;51.520;6.764;2022-09-27T15:42:00;13.00;89.70
26503;DHT22;14177;51.520;6.764;2022-09-27T15:44:46;13.10;89.60
26503;DHT22;14177;51.520;6.764;2022-09-27T15:52:52;13.00;89.50
26503;DHT22;14177;51.520;6.764;2022-09-27T15:55:26;13.00;90.10
26503;DHT22;14177;51.520;6.764;2022-09-27T15:58:06;12.90;90.30
26503;DHT22;14177;51.520;6.764;2022-09-27T16:00:55;12.90;90.40
26503;DHT22;14177;51.520;6.764;2022-09-27T16:03:25;12.90;90.30
26503;DHT22;14177;51.520;6.764;2022-09-27T16:05:56;12.80;90.50
26503;DHT22;14177;51.520;6.764;2022-09-27T16:08:25;12.70;90.60
26503;DHT22;14177;51.520;6.764;2022-09-27T16:10:55;12.60;90.50
26503;DHT22;14177;51.520;6.764;2022-09-27T16:13:24;12.60;90.90
26503;DHT22;14177;51.520;6.764;2022-09-27T16:15:58;12.60;91.10
26503;DHT22;14177;51.520;6.764;2022-09-27T16:18:25;12.40;91.30
26503;DHT22;14177;51.520;6.764;2022-09-27T16:20:59;12.30;90.80
26503;DHT22;14177;51.520;6.764;2022-09-27T16:23:26;12.20;90.70
26503;DHT22;14177;51.520;6.764;2022-09-27T16:25:53;12.10;90.30
26503;DHT22;14177;51.520;6.764;2022-09-27T16:28:20;12.00;90.60
26503;DHT22;14177;51.520;6.764;2022-09-27T16:30:47;12.00;90.70
26503;DHT22;14177;51.520;6.764;2022-09-27T16:33:14;12.00;90.70
26503;DHT22;14177;51.520;6.764;2022-09-27T16:35:41;11.90;90.90
26503;DHT22;14177;51.520;6.764;2022-09-27T16:38:08;11.80;91.00
26503;DHT22;14177;51.520;6.764;2022-09-27T16:40:36;11.80;91.00
26503;DHT22;14177;51.520;6.764;2022-09-27T16:43:03;11.70;91.00
26503;DHT22;14177;51.520;6.764;2022-09-27T16:45:34;11.70;90.90
26503;DHT22;14177;51.520;6.764;2022-09-27T16:48:02;11.70;90.80
26503;DHT22;14177;51.520;6.764;2022-09-27T16:50:29;11.70;91.10
26503;DHT22;14177;51.520;6.764;2022-09-27T16:53:15;11.70;91.30
26503;DHT22;14177;51.520;6.764;2022-09-27T16:55:42;11.70;91.60
26503;DHT22;14177;51.520;6.764;2022-09-27T16:58:09;11.70;91.80
26503;DHT22;14177;51.520;6.764;2022-09-27T17:00:36;11.60;91.60
26503;DHT22;14177;51.520;6.764;2022-09-27T17:03:03;11.70;91.50
26503;DHT22;14177;51.520;6.764;2022-09-27T17:05:30;11.60;91.50
26503;DHT22;14177;51.520;6.764;2022-09-27T17:07:57;11.60;91.40
26503;DHT22;14177;51.520;6.764;2022-09-27T17:10:24;11.60;91.40
26503;DHT22;14177;51.520;6.764;2022-09-27T17:12:51;11.50;91.60
26503;DHT22;14177;51.520;6.764;2022-09-27T17:15:18;11.50;91.70
26503;DHT22;14177;51.520;6.764;2022-09-27T17:17:48;11.40;91.60
26503;DHT22;14177;51.520;6.764;2022-09-27T17:20:15;11.40;91.80
26503;DHT22;14177;51.520;6.764;2022-09-27T17:22:43;11.40;91.90
26503;DHT22;14177;51.520;6.764;2022-09-27T17:25:09;11.30;92.10
26503;DHT22;14177;51.520;6.764;2022-09-27T17:27:36;11.30;92.30
26503;DHT22;14177;51.520;6.764;2022-09-27T17:30:03;11.30;92.50
26503;DHT22;14177;51.520;6.764;2022-09-27T17:32:32;11.20;92.60
26503;DHT22;14177;51.520;6.764;2022-09-27T17:35:00;11.20;92.80
26503;DHT22;14177;51.520;6.764;2022-09-27T17:37:28;11.20;92.90
26503;DHT22;14177;51.520;6.764;2022-09-27T17:39:55;11.20;93.00
26503;DHT22;14177;51.520;6.764;2022-09-27T17:42:23;11.20;93.10
26503;DHT22;14177;51.520;6.764;2022-09-27T17:44:50;11.10;93.10
26503;DHT22;14177;51.520;6.764;2022-09-27T17:47:17;11.10;93.20
26503;DHT22;14177;51.520;6.764;2022-09-27T17:50:03;11.10;93.30
26503;DHT22;14177;51.520;6.764;2022-09-27T17:52:50;11.10;93.30
26503;DHT22;14177;51.520;6.764;2022-09-27T17:55:19;11.10;93.40
26503;DHT22;14177;51.520;6.764;2022-09-27T17:57:47;11.10;93.60
26503;DHT22;14177;51.520;6.764;2022-09-27T18:00:15;11.10;93.70
26503;DHT22;14177;51.520;6.764;2022-09-27T18:02:43;11.10;93.80
26503;DHT22;14177;51.520;6.764;2022-09-27T18:05:11;11.00;93.80
26503;DHT22;14177;51.520;6.764;2022-09-27T18:07:38;11.10;94.10
26503;DHT22;14177;51.520;6.764;2022-09-27T18:10:05;11.00;94.20
26503;DHT22;14177;51.520;6.764;2022-09-27T18:12:32;11.00;94.20
26503;DHT22;14177;51.520;6.764;2022-09-27T18:15:01;11.00;94.50
26503;DHT22;14177;51.520;6.764;2022-09-27T18:17:28;11.00;94.90
26503;DHT22;14177;51.520;6.764;2022-09-27T18:19:55;11.00;95.00
26503;DHT22;14177;51.520;6.764;2022-09-27T18:22:23;11.00;95.20
26503;DHT22;14177;51.520;6.764;2022-09-27T18:24:54;10.90;95.40
26503;DHT22;14177;51.520;6.764;2022-09-27T18:27:21;10.90;95.60
26503;DHT22;14177;51.520;6.764;2022-09-27T18:29:47;10.90;95.80
26503;DHT22;14177;51.520;6.764;2022-09-27T18:32:14;10.90;95.90
26503;DHT22;14177;51.520;6.764;2022-09-27T18:34:41;10.80;95.80
26503;DHT22;14177;51.520;6.764;2022-09-27T18:37:08;10.80;96.00
26503;DHT22;14177;51.520;6.764;2022-09-27T18:39:35;10.70;96.10
26503;DHT22;14177;51.520;6.764;2022-09-27T18:42:02;10.70;96.20
26503;DHT22;14177;51.520;6.764;2022-09-27T18:44:29;10.70;96.30
26503;DHT22;14177;51.520;6.764;2022-09-27T18:46:56;10.60;96.30
26503;DHT22;14177;51.520;6.764;2022-09-27T18:49:24;10.60;96.30
26503;DHT22;14177;51.520;6.764;2022-09-27T18:51:59;10.50;96.30
26503;DHT22;14177;51.520;6.764;2022-09-27T18:54:26;10.50;96.40
26503;DHT22;14177;51.520;6.764;2022-09-27T18:56:53;10.40;96.50
26503;DHT22;14177;51.520;6.764;2022-09-27T18:59:20;10.40;96.60
26503;DHT22;14177;51.520;6.764;2022-09-27T19:01:49;10.40;96.60
26503;DHT22;14177;51.520;6.764;2022-09-27T19:04:18;10.30;96.80
26503;DHT22;14177;51.520;6.764;2022-09-27T19:06:51;10.30;96.80
26503;DHT22;14177;51.520;6.764;2022-09-27T19:09:19;10.30;97.00
26503;DHT22;14177;51.520;6.764;2022-09-27T19:11:46;10.30;97.00
26503;DHT22;14177;51.520;6.764;2022-09-27T19:14:18;10.30;97.20